Terminal Aerodrome Forecast
Issued by NWS

Current Version | Previous Version | Text Only | Print | Product List | Glossary Off
Versions: 1 2 3 4 5 6 7 8 9 10 11 12 13 14 15 16 17 18 19 20 21

000
FTUS41 KILN 011200 AAA
TAFLCK
TAF AMD
KLCK 011214Z 0112/0212 17003KT 5SM BR SKC
     FM011300 18006KT P6SM SKC
     FM012200 18005KT P6SM SKC
     FM020300 14006KT P6SM BKN250=

USA.gov is the U.S. government's official web portal to all federal, state and local government web resources and services.